Flight Track Log - Related Links

Times and Time Zones

All times are in EDT time to prevent confusion due to time zone crossing. See the OPT438 flight status page for this flight to view local times or setup timezone preferences in your user account.

Time Position Orientation Groundspeed Altitude Reporting Facility
EDT Latitude Longitude Course Direction KTS MPH feet Rate Location/Type
06:17PM 44.7411 -93.5086 185° South 237 273 4,300  Level Minneapolis Center
06:18PM 44.6919 -93.4475 139° Southeast 265 305 7,600 3,048 Climbing Minneapolis Center
06:19PM 44.6908 -93.3350 91° East 287 330 10,600 2,952 Climbing Minneapolis Center
06:20PM 44.6900 -93.1950 90° East 310 357 13,700 2,613 Climbing Minneapolis Center
06:21PM 44.7163 -92.9299 107° East  Level Estimated
06:21PM 44.6522 -93.0803 115° Southeast 324 373 16,000  Level Minneapolis Center
06:22PM 44.6147 -92.9575 113° Southeast 339 390 18,300 2,081 Climbing Minneapolis Center
06:23PM 44.5756 -92.8314 114° Southeast 348 400 20,300 1,984 Climbing Minneapolis Center
06:24PM 44.5256 -92.6742 114° Southeast 365 420 22,400 1,887 Climbing Minneapolis Center
06:25PM 44.4822 -92.5383 114° Southeast 377 434 24,200 1,680 Climbing Minneapolis Center
06:26PM 44.4378 -92.4008 114° Southeast 384 442 25,900 1,488 Climbing Minneapolis Center
06:27PM 44.3936 -92.2619 114° Southeast 388 447 27,300 1,258 Climbing Minneapolis Center
06:28PM 44.3458 -92.1153 114° Southeast 410 472 28,500 1,161 Climbing Minneapolis Center
06:29PM 44.2875 -91.9347 114° Southeast 424 488 29,700 1,016 Climbing Minneapolis Center
06:30PM 44.2367 -91.7792 114° Southeast 435 501 30,600 823 Climbing Minneapolis Center
06:31PM 44.1850 -91.6178 114° Southeast 449 517 31,400 774 Climbing Minneapolis Center
06:32PM 44.1306 -91.4542 115° Southeast 463 533 32,200 774 Climbing Minneapolis Center
06:33PM 44.0703 -91.2722 115° Southeast 469 540 33,000 774 Climbing Minneapolis Center
06:34PM 44.0150 -91.1056 115° Southeast 471 542 33,800 726 Climbing Minneapolis Center
06:35PM 43.9569 -90.9372 116° Southeast 478 550 34,500 581 Climbing Minneapolis Center
06:36PM 43.8994 -90.7664 115° Southeast 484 557 35,000 326 Climbing Minneapolis Center
06:37PM 43.8656 -90.6703 116° Southeast 490 564 35,000  Level Chicago Center
06:37PM 43.8300 -90.5664 115° Southeast 484 557 35,000  Level Minneapolis Center
06:38PM 43.7717 -90.3975 116° Southeast 484 557 35,000  Level Minneapolis Center
06:39PM 43.7153 -90.2336 115° Southeast 483 556 35,000  Level Minneapolis Center
06:40PM 43.6581 -90.0678 115° Southeast 480 552 35,000  Level Minneapolis Center
06:41PM 43.5989 -89.9019 116° Southeast 480 552 35,000  Level Minneapolis Center
06:43PM 43.5425 -89.7356 115° Southeast 482 555 35,000  Level Minneapolis Center
06:44PM 43.4822 -89.5289 112° Southeast 485 558 35,000  Level Minneapolis Center
06:45PM 43.4333 -89.3567 111° Southeast 485 558 35,000  Level Minneapolis Center
06:46PM 43.3836 -89.1847 112° Southeast 485 558 35,000  Level Minneapolis Center
06:47PM 43.3339 -89.0136 112° Southeast 485 558 35,000  Level Minneapolis Center
06:48PM 43.2833 -88.8439 112° Southeast 485 558 35,000  Level Minneapolis Center
06:49PM 43.2222 -88.6417 112° Southeast 486 559 35,000  Level Minneapolis Center
06:50PM 43.1714 -88.4733 112° Southeast 486 559 35,000  Level Minneapolis Center
06:51PM 43.1228 -88.3069 112° Southeast 484 557 35,000  Level Minneapolis Center
06:52PM 43.1025 -88.1350 99° East 467 537 35,000  Level Minneapolis Center
06:53PM 43.0792 -87.9289 99° East 463 533 35,000  Level Minneapolis Center
06:54PM 43.0542 -87.6858 98° East 461 531 35,000  Level Chicago Center
06:55PM 43.0350 -87.5136 99° East 460 529 35,000  Level Chicago Center
06:56PM 43.0139 -87.3308 99° East 461 531 35,000  Level Chicago Center
06:57PM 42.9931 -87.1586 99° East 460 529 35,000  Level Chicago Center
06:58PM 42.9733 -86.9869 99° East 459 528 35,000  Level Chicago Center
07:00PM 42.9522 -86.8150 99° East 458 527 35,000  Level Chicago Center
07:01PM 42.9317 -86.6428 99° East 458 527 35,000 -295 Level Chicago Center
07:02PM 42.9069 -86.4394 99° East 459 528 34,400 -780 Descending Chicago Center
07:03PM 42.8844 -86.2700 100° East 458 527 33,400 -683 Descending Chicago Center
07:04PM 42.8628 -86.1003 100° East 459 528 33,000 -194 Descending Chicago Center
07:05PM 42.8433 -85.9369 99° East 449 517 33,000  Level Chicago Center
07:06PM 42.8181 -85.7422 100° East 446 513 33,000  Level Chicago Center
07:07PM 42.7975 -85.5814 100° East 440 506 33,000  Level Chicago Center
07:08PM 42.7606 -85.4214 107° East 454 522 33,000  Level Chicago Center
07:09PM 42.7058 -85.2658 116° Southeast 453 521 33,000  Level Chicago Center
07:10PM 42.6508 -85.1103 116° Southeast 455 524 33,000 -242 Level Chicago Center
07:11PM 42.5958 -84.9531 115° Southeast 461 531 32,500 -1,016 Descending Chicago Center
07:12PM 42.5281 -84.7611 116° Southeast 463 533 30,900 -1,403 Descending Chicago Center
07:13PM 42.4706 -84.6067 117° Southeast 465 535 29,600 -919 Descending Chicago Center
07:14PM 42.4136 -84.4461 116° Southeast 466 536 29,000 -290 Descending Chicago Center
07:15PM 42.3589 -84.2953 116° Southeast 461 531 29,000  Level Chicago Center
07:16PM 42.3031 -84.1447 117° Southeast 454 522 29,000  Level Chicago Center
07:17PM 42.2497 -83.9967 116° Southeast 446 513 29,000  Level Chicago Center
07:18PM 42.1950 -83.8497 117° Southeast 442 509 29,000  Level Chicago Center
07:19PM 42.1303 -83.6739 116° Southeast 441 507 29,000  Level Chicago Center
07:20PM 42.0686 -83.5133 117° Southeast 440 506 29,000  Level Cleveland Center
07:21PM 42.0383 -83.3567 105° East 432 497 29,000 -339 Level Cleveland Center
07:22PM 42.0222 -83.1806 97° East 433 498 28,300 -1,210 Descending Cleveland Center
07:23PM 42.0058 -83.0144 98° East 449 517 26,500 -1,756 Descending Cleveland Center
07:24PM 41.9886 -82.8436 98° East 460 529 24,700 -1,756 Descending Cleveland Center
07:25PM 41.9719 -82.6750 98° East 458 527 22,900 -1,935 Descending Cleveland Center
07:26PM 41.9519 -82.4819 98° East 439 505 20,700 -1,887 Descending Cleveland Center
07:28PM 41.9344 -82.3247 98° East 432 497 19,000 -1,756 Descending Cleveland Center
07:29PM 41.9194 -82.1678 97° East 429 494 17,100 -1,940 Descending Cleveland Center
07:30PM 41.8992 -81.9900 99° East 416 479 14,700 -2,037 Descending Cleveland Center
07:30PM 41.8894 -81.8900 97° East 407 468 13,400 -1,846 Descending Cleveland Center
07:31PM 41.8861 -81.8678 101° East 401 461 13,100 -1,869 Descending Cleveland Center
07:31PM 41.8750 -81.7497 97° East 383 441 11,500 -1,869 Descending Cleveland Center
07:32PM 41.8725 -81.7278 99° East 379 436 11,200 -1,700 Descending Cleveland Center
07:32PM 41.8611 -81.6242 98° East 342 394 9,800 -1,645 Descending Cleveland Center
07:33PM 41.8583 -81.6067 102° East 329 379 9,500 -1,475 Descending Cleveland Center
07:33PM 41.8417 -81.5142 104° East 297 342 8,300 -1,742 Descending Cleveland Center
07:34PM 41.8256 -81.4844 126° Southeast 298 343 7,700 -1,869 Descending Cleveland Center
07:34PM 41.7906 -81.4275 129° Southeast 284 327 6,400 -2,164 Descending Cleveland Center
07:35PM 41.7758 -81.3986 124° Southeast 291 335 5,500 -2,066 Descending Cleveland Center
07:35PM 41.7331 -81.3653 150° Southeast 272 313 4,300 -1,548 Descending Cleveland Center
07:36PM 41.7083 -81.3644 179° South 275 316 3,900 -963 Descending Cleveland Center
07:37PM 41.6436 -81.3736 186° South 248 285 3,000 -941 Descending Cleveland Center
07:37PM 41.6139 -81.4083 221° Southwest 207 238 2,300 -968 Descending Cleveland Center
07:38PM 41.6022 -81.4278 231° Southwest 219 252 2,000 -873 Descending Cleveland Center
07:38PM 41.5892 -81.4492 231° Southwest 161 185 1,500 -885 Descending Cleveland Center
07:39PM 41.5775 -81.4683 231° Southwest 167 192 1,100 -333 Descending Cleveland Center
07:40PM 41.5572 -81.4997 229° Southwest 158 182 1,000 -97 Descending Cleveland Center

Login

Don't have an account? Register now (free) for customized features, flight alerts, and more!